sensor_id;sensor_type;location;lat;lon;timestamp;temperature;humidity
69225;DHT22;56333;51.306;17.056;2023-05-29T00:00:24;10.90;65.18
69225;DHT22;56333;51.306;17.056;2023-05-29T00:02:04;10.87;65.28
69225;DHT22;56333;51.306;17.056;2023-05-29T00:03:34;10.85;65.43
69225;DHT22;56333;51.306;17.056;2023-05-29T00:05:03;10.84;65.47
69225;DHT22;56333;51.306;17.056;2023-05-29T00:06:32;10.84;65.47
69225;DHT22;56333;51.306;17.056;2023-05-29T00:08:01;10.83;65.57
69225;DHT22;56333;51.306;17.056;2023-05-29T00:09:31;10.84;65.63
69225;DHT22;56333;51.306;17.056;2023-05-29T00:11:00;10.85;65.53
69225;DHT22;56333;51.306;17.056;2023-05-29T00:12:29;10.84;65.50
69225;DHT22;56333;51.306;17.056;2023-05-29T00:13:58;10.85;65.68
69225;DHT22;56333;51.306;17.056;2023-05-29T00:15:27;10.83;65.68
69225;DHT22;56333;51.306;17.056;2023-05-29T00:16:56;10.78;65.72
69225;DHT22;56333;51.306;17.056;2023-05-29T00:18:26;10.78;65.72
69225;DHT22;56333;51.306;17.056;2023-05-29T00:19:56;10.76;65.82
69225;DHT22;56333;51.306;17.056;2023-05-29T00:21:28;10.74;65.78
69225;DHT22;56333;51.306;17.056;2023-05-29T00:22:56;10.72;65.90
69225;DHT22;56333;51.306;17.056;2023-05-29T00:24:26;10.70;65.85
69225;DHT22;56333;51.306;17.056;2023-05-29T00:25:55;10.69;66.05
69225;DHT22;56333;51.306;17.056;2023-05-29T00:27:24;10.70;66.05
69225;DHT22;56333;51.306;17.056;2023-05-29T00:28:53;10.71;66.22
69225;DHT22;56333;51.306;17.056;2023-05-29T00:30:22;10.70;66.20
69225;DHT22;56333;51.306;17.056;2023-05-29T00:31:51;10.70;66.28
69225;DHT22;56333;51.306;17.056;2023-05-29T00:33:20;10.72;66.30
69225;DHT22;56333;51.306;17.056;2023-05-29T00:34:49;10.69;66.32
69225;DHT22;56333;51.306;17.056;2023-05-29T00:36:19;10.68;66.22
69225;DHT22;56333;51.306;17.056;2023-05-29T00:37:48;10.67;66.20
69225;DHT22;56333;51.306;17.056;2023-05-29T00:39:16;10.65;66.25
69225;DHT22;56333;51.306;17.056;2023-05-29T00:40:45;10.63;66.53
69225;DHT22;56333;51.306;17.056;2023-05-29T00:42:14;10.61;66.35
69225;DHT22;56333;51.306;17.056;2023-05-29T00:43:43;10.60;66.43
69225;DHT22;56333;51.306;17.056;2023-05-29T00:45:12;10.60;66.57
69225;DHT22;56333;51.306;17.056;2023-05-29T00:46:41;10.59;66.57
69225;DHT22;56333;51.306;17.056;2023-05-29T00:48:10;10.60;66.63
69225;DHT22;56333;51.306;17.056;2023-05-29T00:49:39;10.60;66.53
69225;DHT22;56333;51.306;17.056;2023-05-29T00:51:08;10.60;66.55
69225;DHT22;56333;51.306;17.056;2023-05-29T00:52:39;10.60;66.45
69225;DHT22;56333;51.306;17.056;2023-05-29T00:54:11;10.59;66.43
69225;DHT22;56333;51.306;17.056;2023-05-29T00:55:46;10.56;66.30
69225;DHT22;56333;51.306;17.056;2023-05-29T00:57:16;10.54;66.40
69225;DHT22;56333;51.306;17.056;2023-05-29T00:58:45;10.53;66.45
69225;DHT22;56333;51.306;17.056;2023-05-29T01:00:17;10.51;66.38
69225;DHT22;56333;51.306;17.056;2023-05-29T01:01:46;10.49;66.63
69225;DHT22;56333;51.306;17.056;2023-05-29T01:03:16;10.47;66.53
69225;DHT22;56333;51.306;17.056;2023-05-29T01:04:47;10.46;66.45
69225;DHT22;56333;51.306;17.056;2023-05-29T01:06:18;10.44;66.70
69225;DHT22;56333;51.306;17.056;2023-05-29T01:07:47;10.44;66.80
69225;DHT22;56333;51.306;17.056;2023-05-29T01:09:16;10.47;66.80
69225;DHT22;56333;51.306;17.056;2023-05-29T01:10:45;10.47;66.85
69225;DHT22;56333;51.306;17.056;2023-05-29T01:12:22;10.48;66.88
69225;DHT22;56333;51.306;17.056;2023-05-29T01:14:05;10.47;66.75
69225;DHT22;56333;51.306;17.056;2023-05-29T01:15:41;10.45;66.70
69225;DHT22;56333;51.306;17.056;2023-05-29T01:17:17;10.44;66.78
69225;DHT22;56333;51.306;17.056;2023-05-29T01:18:54;10.41;66.82
69225;DHT22;56333;51.306;17.056;2023-05-29T01:20:38;10.40;66.72
69225;DHT22;56333;51.306;17.056;2023-05-29T01:22:16;10.39;66.93
69225;DHT22;56333;51.306;17.056;2023-05-29T01:24:01;10.35;66.95
69225;DHT22;56333;51.306;17.056;2023-05-29T01:25:58;10.33;67.00
69225;DHT22;56333;51.306;17.056;2023-05-29T01:27:45;10.28;67.10
69225;DHT22;56333;51.306;17.056;2023-05-29T01:29:17;10.29;67.15
69225;DHT22;56333;51.306;17.056;2023-05-29T01:30:50;10.29;67.30
69225;DHT22;56333;51.306;17.056;2023-05-29T01:32:20;10.30;67.35
69225;DHT22;56333;51.306;17.056;2023-05-29T01:33:54;10.31;67.32
69225;DHT22;56333;51.306;17.056;2023-05-29T01:35:24;10.31;67.30
69225;DHT22;56333;51.306;17.056;2023-05-29T01:36:54;10.30;67.35
69225;DHT22;56333;51.306;17.056;2023-05-29T01:38:23;10.30;67.38
69225;DHT22;56333;51.306;17.056;2023-05-29T01:39:52;10.27;67.30
69225;DHT22;56333;51.306;17.056;2023-05-29T01:41:23;10.27;67.40
69225;DHT22;56333;51.306;17.056;2023-05-29T01:42:53;10.25;67.20
69225;DHT22;56333;51.306;17.056;2023-05-29T01:44:21;10.23;67.18
69225;DHT22;56333;51.306;17.056;2023-05-29T01:45:51;10.22;67.28
69225;DHT22;56333;51.306;17.056;2023-05-29T01:47:20;10.23;67.22
69225;DHT22;56333;51.306;17.056;2023-05-29T01:48:49;10.21;67.40
69225;DHT22;56333;51.306;17.056;2023-05-29T01:50:20;10.20;67.47
69225;DHT22;56333;51.306;17.056;2023-05-29T01:51:49;10.17;67.40
69225;DHT22;56333;51.306;17.056;2023-05-29T01:53:17;10.20;67.53
69225;DHT22;56333;51.306;17.056;2023-05-29T01:54:47;10.20;67.57
69225;DHT22;56333;51.306;17.056;2023-05-29T01:56:16;10.20;67.65
69225;DHT22;56333;51.306;17.056;2023-05-29T01:57:45;10.20;67.55
69225;DHT22;56333;51.306;17.056;2023-05-29T01:59:15;10.20;67.57
69225;DHT22;56333;51.306;17.056;2023-05-29T02:00:44;10.18;67.70
69225;DHT22;56333;51.306;17.056;2023-05-29T02:02:13;10.16;67.70
69225;DHT22;56333;51.306;17.056;2023-05-29T02:03:42;10.14;67.60
69225;DHT22;56333;51.306;17.056;2023-05-29T02:05:11;10.14;67.75
69225;DHT22;56333;51.306;17.056;2023-05-29T02:06:42;10.12;67.90
69225;DHT22;56333;51.306;17.056;2023-05-29T02:08:10;10.11;67.97
69225;DHT22;56333;51.306;17.056;2023-05-29T02:09:39;10.10;68.15
69225;DHT22;56333;51.306;17.056;2023-05-29T02:11:08;10.11;68.22
69225;DHT22;56333;51.306;17.056;2023-05-29T02:12:37;10.12;68.20
69225;DHT22;56333;51.306;17.056;2023-05-29T02:14:07;10.13;68.22
69225;DHT22;56333;51.306;17.056;2023-05-29T02:15:36;10.12;68.32
69225;DHT22;56333;51.306;17.056;2023-05-29T02:17:05;10.13;68.15
69225;DHT22;56333;51.306;17.056;2023-05-29T02:18:35;10.13;68.22
69225;DHT22;56333;51.306;17.056;2023-05-29T02:20:07;10.12;68.25
69225;DHT22;56333;51.306;17.056;2023-05-29T02:21:39;10.11;68.13
69225;DHT22;56333;51.306;17.056;2023-05-29T02:23:09;10.11;68.20
69225;DHT22;56333;51.306;17.056;2023-05-29T02:24:39;10.09;68.20
69225;DHT22;56333;51.306;17.056;2023-05-29T02:26:08;10.07;68.15
69225;DHT22;56333;51.306;17.056;2023-05-29T02:27:40;10.04;68.28
69225;DHT22;56333;51.306;17.056;2023-05-29T02:29:11;10.05;68.35
69225;DHT22;56333;51.306;17.056;2023-05-29T02:30:40;10.07;68.47
69225;DHT22;56333;51.306;17.056;2023-05-29T02:32:09;10.06;68.57
69225;DHT22;56333;51.306;17.056;2023-05-29T02:33:38;10.07;68.60
69225;DHT22;56333;51.306;17.056;2023-05-29T02:35:07;10.08;68.63
69225;DHT22;56333;51.306;17.056;2023-05-29T02:36:38;10.11;68.55
69225;DHT22;56333;51.306;17.056;2023-05-29T02:38:07;10.11;68.57
69225;DHT22;56333;51.306;17.056;2023-05-29T02:39:39;10.11;68.57
69225;DHT22;56333;51.306;17.056;2023-05-29T02:41:07;10.10;68.47
69225;DHT22;56333;51.306;17.056;2023-05-29T02:42:36;10.11;68.45
69225;DHT22;56333;51.306;17.056;2023-05-29T02:44:05;10.10;68.82
69225;DHT22;56333;51.306;17.056;2023-05-29T02:45:34;10.08;68.78
69225;DHT22;56333;51.306;17.056;2023-05-29T02:47:04;10.09;68.70
69225;DHT22;56333;51.306;17.056;2023-05-29T02:48:33;10.10;68.72
69225;DHT22;56333;51.306;17.056;2023-05-29T02:50:02;10.11;68.85
69225;DHT22;56333;51.306;17.056;2023-05-29T02:51:33;10.16;68.85
69225;DHT22;56333;51.306;17.056;2023-05-29T02:53:02;10.19;68.93
69225;DHT22;56333;51.306;17.056;2023-05-29T02:54:32;10.23;68.93
69225;DHT22;56333;51.306;17.056;2023-05-29T02:56:01;10.26;68.88
69225;DHT22;56333;51.306;17.056;2023-05-29T02:57:31;10.28;68.93
69225;DHT22;56333;51.306;17.056;2023-05-29T02:59:00;10.29;68.88
69225;DHT22;56333;51.306;17.056;2023-05-29T03:00:29;10.30;68.85
69225;DHT22;56333;51.306;17.056;2023-05-29T03:01:58;10.32;68.88
69225;DHT22;56333;51.306;17.056;2023-05-29T03:03:27;10.33;68.82
69225;DHT22;56333;51.306;17.056;2023-05-29T03:04:56;10.35;68.78
69225;DHT22;56333;51.306;17.056;2023-05-29T03:06:25;10.39;68.72
69225;DHT22;56333;51.306;17.056;2023-05-29T03:07:54;10.43;68.90
69225;DHT22;56333;51.306;17.056;2023-05-29T03:09:24;10.48;68.85
69225;DHT22;56333;51.306;17.056;2023-05-29T03:10:54;10.54;68.90
69225;DHT22;56333;51.306;17.056;2023-05-29T03:12:23;10.60;68.90
69225;DHT22;56333;51.306;17.056;2023-05-29T03:13:53;10.71;68.80
69225;DHT22;56333;51.306;17.056;2023-05-29T03:15:22;10.84;68.53
69225;DHT22;56333;51.306;17.056;2023-05-29T03:16:52;10.89;68.38
69225;DHT22;56333;51.306;17.056;2023-05-29T03:18:21;10.93;68.18
69225;DHT22;56333;51.306;17.056;2023-05-29T03:19:50;11.00;68.00
69225;DHT22;56333;51.306;17.056;2023-05-29T03:21:20;11.02;67.90
69225;DHT22;56333;51.306;17.056;2023-05-29T03:22:49;11.05;67.85
69225;DHT22;56333;51.306;17.056;2023-05-29T03:24:18;11.14;67.80
69225;DHT22;56333;51.306;17.056;2023-05-29T03:25:48;11.33;67.57
69225;DHT22;56333;51.306;17.056;2023-05-29T03:27:17;11.62;67.15
69225;DHT22;56333;51.306;17.056;2023-05-29T03:28:53;11.90;66.65
69225;DHT22;56333;51.306;17.056;2023-05-29T03:30:22;12.17;66.32
69225;DHT22;56333;51.306;17.056;2023-05-29T03:31:51;12.45;65.88
69225;DHT22;56333;51.306;17.056;2023-05-29T03:33:23;12.74;65.22
69225;DHT22;56333;51.306;17.056;2023-05-29T03:35:02;13.07;64.63
69225;DHT22;56333;51.306;17.056;2023-05-29T03:36:33;13.33;64.00
69225;DHT22;56333;51.306;17.056;2023-05-29T03:38:02;13.56;63.35
69225;DHT22;56333;51.306;17.056;2023-05-29T03:39:31;13.66;62.70
69225;DHT22;56333;51.306;17.056;2023-05-29T03:41:00;13.72;62.45
69225;DHT22;56333;51.306;17.056;2023-05-29T03:42:29;13.71;62.05
69225;DHT22;56333;51.306;17.056;2023-05-29T03:43:58;13.70;61.85
69225;DHT22;56333;51.306;17.056;2023-05-29T03:45:27;13.70;61.65
69225;DHT22;56333;51.306;17.056;2023-05-29T03:46:56;13.69;61.28
69225;DHT22;56333;51.306;17.056;2023-05-29T03:48:25;13.71;61.25
69225;DHT22;56333;51.306;17.056;2023-05-29T03:49:55;13.76;61.05
69225;DHT22;56333;51.306;17.056;2023-05-29T03:51:24;13.90;60.72
69225;DHT22;56333;51.306;17.056;2023-05-29T03:52:54;14.11;60.67
69225;DHT22;56333;51.306;17.056;2023-05-29T03:54:22;14.40;60.30
69225;DHT22;56333;51.306;17.056;2023-05-29T03:55:51;14.73;59.67
69225;DHT22;56333;51.306;17.056;2023-05-29T03:57:19;15.11;59.05
69225;DHT22;56333;51.306;17.056;2023-05-29T03:58:49;15.52;58.53
69225;DHT22;56333;51.306;17.056;2023-05-29T04:00:18;15.96;57.53
69225;DHT22;56333;51.306;17.056;2023-05-29T04:01:49;16.40;56.63
69225;DHT22;56333;51.306;17.056;2023-05-29T04:03:19;16.82;55.58
69225;DHT22;56333;51.306;17.056;2023-05-29T04:04:48;17.26;54.83
69225;DHT22;56333;51.306;17.056;2023-05-29T04:06:19;17.72;54.42
69225;DHT22;56333;51.306;17.056;2023-05-29T04:07:48;18.15;53.00
69225;DHT22;56333;51.306;17.056;2023-05-29T04:09:19;18.60;52.35
69225;DHT22;56333;51.306;17.056;2023-05-29T04:10:47;19.06;51.75
69225;DHT22;56333;51.306;17.056;2023-05-29T04:12:18;19.50;51.05
69225;DHT22;56333;51.306;17.056;2023-05-29T04:13:47;19.93;49.58
69225;DHT22;56333;51.306;17.056;2023-05-29T04:15:17;20.38;48.95
69225;DHT22;56333;51.306;17.056;2023-05-29T04:16:46;20.80;48.35
69225;DHT22;56333;51.306;17.056;2023-05-29T04:18:15;21.22;47.00
69225;DHT22;56333;51.306;17.056;2023-05-29T04:19:44;21.65;46.67
69225;DHT22;56333;51.306;17.056;2023-05-29T04:21:14;22.09;45.72
69225;DHT22;56333;51.306;17.056;2023-05-29T04:22:44;22.47;45.15
69225;DHT22;56333;51.306;17.056;2023-05-29T04:24:13;22.83;44.28
69225;DHT22;56333;51.306;17.056;2023-05-29T04:25:42;23.23;43.78
69225;DHT22;56333;51.306;17.056;2023-05-29T04:27:14;23.66;42.63
69225;DHT22;56333;51.306;17.056;2023-05-29T04:28:43;24.10;42.50
69225;DHT22;56333;51.306;17.056;2023-05-29T04:30:14;24.54;41.95
69225;DHT22;56333;51.306;17.056;2023-05-29T04:31:45;24.92;41.15
69225;DHT22;56333;51.306;17.056;2023-05-29T04:33:16;25.32;39.40
69225;DHT22;56333;51.306;17.056;2023-05-29T04:34:48;25.75;39.35
69225;DHT22;56333;51.306;17.056;2023-05-29T04:36:17;26.12;35.00
69225;DHT22;56333;51.306;17.056;2023-05-29T04:37:49;26.48;36.40
69225;DHT22;56333;51.306;17.056;2023-05-29T04:39:20;26.65;33.72
69225;DHT22;56333;51.306;17.056;2023-05-29T04:40:50;26.92;35.55
69225;DHT22;56333;51.306;17.056;2023-05-29T04:42:22;27.26;34.90
69225;DHT22;56333;51.306;17.056;2023-05-29T04:43:51;27.59;33.53
69225;DHT22;56333;51.306;17.056;2023-05-29T04:45:22;27.81;30.42
69225;DHT22;56333;51.306;17.056;2023-05-29T04:46:50;28.05;31.65
69225;DHT22;56333;51.306;17.056;2023-05-29T04:48:21;28.29;31.17
69225;DHT22;56333;51.306;17.056;2023-05-29T04:49:51;28.47;30.05
69225;DHT22;56333;51.306;17.056;2023-05-29T04:51:20;28.61;29.25
69225;DHT22;56333;51.306;17.056;2023-05-29T04:52:49;28.85;30.33
69225;DHT22;56333;51.306;17.056;2023-05-29T04:54:18;29.08;29.80
69225;DHT22;56333;51.306;17.056;2023-05-29T04:55:50;29.29;29.33
69225;DHT22;56333;51.306;17.056;2023-05-29T04:57:20;29.56;29.13
69225;DHT22;56333;51.306;17.056;2023-05-29T04:58:50;29.81;29.33
69225;DHT22;56333;51.306;17.056;2023-05-29T05:00:20;30.10;28.23
69225;DHT22;56333;51.306;17.056;2023-05-29T05:01:50;30.18;27.05
69225;DHT22;56333;51.306;17.056;2023-05-29T05:03:18;30.44;28.27
69225;DHT22;56333;51.306;17.056;2023-05-29T05:04:49;30.64;26.67
69225;DHT22;56333;51.306;17.056;2023-05-29T05:06:18;30.87;27.35
69225;DHT22;56333;51.306;17.056;2023-05-29T05:07:49;31.13;26.27
69225;DHT22;56333;51.306;17.056;2023-05-29T05:09:18;31.29;25.88
69225;DHT22;56333;51.306;17.056;2023-05-29T05:10:47;31.40;25.85
69225;DHT22;56333;51.306;17.056;2023-05-29T05:12:17;31.67;26.52
69225;DHT22;56333;51.306;17.056;2023-05-29T05:13:46;31.87;26.10
69225;DHT22;56333;51.306;17.056;2023-05-29T05:15:15;32.07;25.70
69225;DHT22;56333;51.306;17.056;2023-05-29T05:16:44;32.28;24.45
69225;DHT22;56333;51.306;17.056;2023-05-29T05:18:13;32.55;24.80
69225;DHT22;56333;51.306;17.056;2023-05-29T05:19:44;32.89;25.27
69225;DHT22;56333;51.306;17.056;2023-05-29T05:21:14;33.20;23.95
69225;DHT22;56333;51.306;17.056;2023-05-29T05:22:43;33.42;23.95
69225;DHT22;56333;51.306;17.056;2023-05-29T05:24:13;33.58;23.00
69225;DHT22;56333;51.306;17.056;2023-05-29T05:25:42;33.94;24.27
69225;DHT22;56333;51.306;17.056;2023-05-29T05:27:11;34.08;22.83
69225;DHT22;56333;51.306;17.056;2023-05-29T05:28:41;34.12;22.30
69225;DHT22;56333;51.306;17.056;2023-05-29T05:30:11;34.42;23.30
69225;DHT22;56333;51.306;17.056;2023-05-29T05:31:40;34.49;21.88
69225;DHT22;56333;51.306;17.056;2023-05-29T05:33:10;34.59;22.20
69225;DHT22;56333;51.306;17.056;2023-05-29T05:34:39;34.70;21.35
69225;DHT22;56333;51.306;17.056;2023-05-29T05:36:10;34.64;21.10
69225;DHT22;56333;51.306;17.056;2023-05-29T05:37:39;34.66;21.25
69225;DHT22;56333;51.306;17.056;2023-05-29T05:39:09;34.77;21.95
69225;DHT22;56333;51.306;17.056;2023-05-29T05:40:40;34.98;21.92
69225;DHT22;56333;51.306;17.056;2023-05-29T05:42:13;35.19;21.88
69225;DHT22;56333;51.306;17.056;2023-05-29T05:43:52;35.39;21.55
69225;DHT22;56333;51.306;17.056;2023-05-29T05:45:34;35.40;20.95
69225;DHT22;56333;51.306;17.056;2023-05-29T05:47:07;35.35;20.98
69225;DHT22;56333;51.306;17.056;2023-05-29T05:48:37;35.26;21.05
69225;DHT22;56333;51.306;17.056;2023-05-29T05:50:08;35.11;21.15
69225;DHT22;56333;51.306;17.056;2023-05-29T05:51:38;34.82;21.33
69225;DHT22;56333;51.306;17.056;2023-05-29T05:53:07;34.56;21.55
69225;DHT22;56333;51.306;17.056;2023-05-29T05:54:36;34.20;21.65
69225;DHT22;56333;51.306;17.056;2023-05-29T05:56:06;33.56;21.95
69225;DHT22;56333;51.306;17.056;2023-05-29T05:57:36;32.76;22.77
69225;DHT22;56333;51.306;17.056;2023-05-29T05:59:05;31.61;23.58
69225;DHT22;56333;51.306;17.056;2023-05-29T06:00:34;30.91;24.58
69225;DHT22;56333;51.306;17.056;2023-05-29T06:02:05;30.26;25.38
69225;DHT22;56333;51.306;17.056;2023-05-29T06:03:34;29.55;26.30
69225;DHT22;56333;51.306;17.056;2023-05-29T06:05:06;28.86;27.10
69225;DHT22;56333;51.306;17.056;2023-05-29T06:06:35;28.19;28.02
69225;DHT22;56333;51.306;17.056;2023-05-29T06:08:04;27.52;29.05
69225;DHT22;56333;51.306;17.056;2023-05-29T06:09:33;27.00;30.15
69225;DHT22;56333;51.306;17.056;2023-05-29T06:11:04;26.44;30.67
69225;DHT22;56333;51.306;17.056;2023-05-29T06:12:34;25.88;31.38
69225;DHT22;56333;51.306;17.056;2023-05-29T06:14:11;25.44;32.00
69225;DHT22;56333;51.306;17.056;2023-05-29T06:15:41;25.10;31.80
69225;DHT22;56333;51.306;17.056;2023-05-29T06:17:10;24.70;32.90
69225;DHT22;56333;51.306;17.056;2023-05-29T06:18:40;24.38;33.25
69225;DHT22;56333;51.306;17.056;2023-05-29T06:20:10;24.08;33.60
69225;DHT22;56333;51.306;17.056;2023-05-29T06:21:38;23.80;34.03
69225;DHT22;56333;51.306;17.056;2023-05-29T06:23:09;23.56;34.78
69225;DHT22;56333;51.306;17.056;2023-05-29T06:24:39;23.25;35.55
69225;DHT22;56333;51.306;17.056;2023-05-29T06:26:08;23.01;35.80
69225;DHT22;56333;51.306;17.056;2023-05-29T06:27:37;22.80;35.58
69225;DHT22;56333;51.306;17.056;2023-05-29T06:29:06;22.50;36.80
69225;DHT22;56333;51.306;17.056;2023-05-29T06:30:38;22.24;37.67
69225;DHT22;56333;51.306;17.056;2023-05-29T06:32:07;22.02;38.88
69225;DHT22;56333;51.306;17.056;2023-05-29T06:33:36;21.89;39.38
69225;DHT22;56333;51.306;17.056;2023-05-29T06:35:07;21.76;39.67
69225;DHT22;56333;51.306;17.056;2023-05-29T06:36:36;21.58;40.08
69225;DHT22;56333;51.306;17.056;2023-05-29T06:38:06;21.40;40.08
69225;DHT22;56333;51.306;17.056;2023-05-29T06:39:36;21.26;40.35
69225;DHT22;56333;51.306;17.056;2023-05-29T06:41:07;21.09;41.35
69225;DHT22;56333;51.306;17.056;2023-05-29T06:42:36;20.99;41.03
69225;DHT22;56333;51.306;17.056;2023-05-29T06:44:07;20.87;42.00
69225;DHT22;56333;51.306;17.056;2023-05-29T06:45:37;20.81;41.47
69225;DHT22;56333;51.306;17.056;2023-05-29T06:47:07;20.75;41.33
69225;DHT22;56333;51.306;17.056;2023-05-29T06:48:36;20.71;41.63
69225;DHT22;56333;51.306;17.056;2023-05-29T06:50:07;20.68;42.13
69225;DHT22;56333;51.306;17.056;2023-05-29T06:51:37;20.64;41.95
69225;DHT22;56333;51.306;17.056;2023-05-29T06:54:01;20.56;41.78
69225;DHT22;56333;51.306;17.056;2023-05-29T06:55:31;20.53;41.75
69225;DHT22;56333;51.306;17.056;2023-05-29T06:57:00;20.47;42.20
69225;DHT22;56333;51.306;17.056;2023-05-29T06:58:29;20.40;42.45
69225;DHT22;56333;51.306;17.056;2023-05-29T06:59:57;20.36;42.65
69225;DHT22;56333;51.306;17.056;2023-05-29T07:01:59;20.33;43.17
69225;DHT22;56333;51.306;17.056;2023-05-29T07:03:28;20.28;42.72
69225;DHT22;56333;51.306;17.056;2023-05-29T07:05:00;20.26;42.95
69225;DHT22;56333;51.306;17.056;2023-05-29T07:06:29;20.26;42.95
69225;DHT22;56333;51.306;17.056;2023-05-29T07:08:00;20.29;42.67
69225;DHT22;56333;51.306;17.056;2023-05-29T07:09:29;20.31;42.42
69225;DHT22;56333;51.306;17.056;2023-05-29T07:10:58;20.33;41.92
69225;DHT22;56333;51.306;17.056;2023-05-29T07:12:28;20.34;42.03
69225;DHT22;56333;51.306;17.056;2023-05-29T07:13:57;20.33;41.40
69225;DHT22;56333;51.306;17.056;2023-05-29T07:15:26;20.36;41.17
69225;DHT22;56333;51.306;17.056;2023-05-29T07:16:55;20.37;40.97
69225;DHT22;56333;51.306;17.056;2023-05-29T07:18:25;20.36;40.72
69225;DHT22;56333;51.306;17.056;2023-05-29T07:19:54;20.34;40.75
69225;DHT22;56333;51.306;17.056;2023-05-29T07:21:23;20.34;41.08
69225;DHT22;56333;51.306;17.056;2023-05-29T07:22:53;20.37;41.13
69225;DHT22;56333;51.306;17.056;2023-05-29T07:24:22;20.41;41.10
69225;DHT22;56333;51.306;17.056;2023-05-29T07:25:51;20.43;41.10
69225;DHT22;56333;51.306;17.056;2023-05-29T07:27:21;20.44;41.22
69225;DHT22;56333;51.306;17.056;2023-05-29T07:28:50;20.44;41.08
69225;DHT22;56333;51.306;17.056;2023-05-29T07:30:19;20.46;40.80
69225;DHT22;56333;51.306;17.056;2023-05-29T07:31:49;20.45;38.20
69225;DHT22;56333;51.306;17.056;2023-05-29T07:33:18;20.44;37.47
69225;DHT22;56333;51.306;17.056;2023-05-29T07:34:48;20.41;38.10
69225;DHT22;56333;51.306;17.056;2023-05-29T07:36:17;20.40;38.42
69225;DHT22;56333;51.306;17.056;2023-05-29T07:37:47;20.34;37.42
69225;DHT22;56333;51.306;17.056;2023-05-29T07:39:19;20.32;37.58
69225;DHT22;56333;51.306;17.056;2023-05-29T07:40:48;20.29;37.10
69225;DHT22;56333;51.306;17.056;2023-05-29T07:42:24;20.29;37.45
69225;DHT22;56333;51.306;17.056;2023-05-29T07:43:53;20.28;38.08
69225;DHT22;56333;51.306;17.056;2023-05-29T07:45:22;20.27;38.30
69225;DHT22;56333;51.306;17.056;2023-05-29T07:46:52;20.25;39.17
69225;DHT22;56333;51.306;17.056;2023-05-29T07:48:45;20.27;39.53
69225;DHT22;56333;51.306;17.056;2023-05-29T07:50:15;20.27;39.45
69225;DHT22;56333;51.306;17.056;2023-05-29T07:51:45;20.30;38.83
69225;DHT22;56333;51.306;17.056;2023-05-29T07:53:14;20.34;38.33
69225;DHT22;56333;51.306;17.056;2023-05-29T07:54:44;20.29;37.42
69225;DHT22;56333;51.306;17.056;2023-05-29T07:56:13;20.26;37.85
69225;DHT22;56333;51.306;17.056;2023-05-29T07:57:42;20.27;38.28
69225;DHT22;56333;51.306;17.056;2023-05-29T07:59:13;20.29;38.50
69225;DHT22;56333;51.306;17.056;2023-05-29T08:00:43;20.31;38.92
69225;DHT22;56333;51.306;17.056;2023-05-29T08:02:13;20.33;38.60
69225;DHT22;56333;51.306;17.056;2023-05-29T08:04:01;20.32;38.60
69225;DHT22;56333;51.306;17.056;2023-05-29T08:05:31;20.30;37.67
69225;DHT22;56333;51.306;17.056;2023-05-29T08:07:04;20.30;37.97
69225;DHT22;56333;51.306;17.056;2023-05-29T08:08:34;20.33;38.25
69225;DHT22;56333;51.306;17.056;2023-05-29T08:10:05;20.35;38.92
69225;DHT22;56333;51.306;17.056;2023-05-29T08:11:35;20.37;38.88
69225;DHT22;56333;51.306;17.056;2023-05-29T08:13:02;20.37;38.88
69225;DHT22;56333;51.306;17.056;2023-05-29T08:14:32;20.40;38.67
69225;DHT22;56333;51.306;17.056;2023-05-29T08:16:02;20.44;38.63
69225;DHT22;56333;51.306;17.056;2023-05-29T08:17:31;20.46;38.28
69225;DHT22;56333;51.306;17.056;2023-05-29T08:19:00;20.49;38.00
69225;DHT22;56333;51.306;17.056;2023-05-29T08:20:29;20.52;37.95
69225;DHT22;56333;51.306;17.056;2023-05-29T08:21:59;20.54;37.88
69225;DHT22;56333;51.306;17.056;2023-05-29T08:23:27;20.56;37.53
69225;DHT22;56333;51.306;17.056;2023-05-29T08:24:57;20.53;36.38
69225;DHT22;56333;51.306;17.056;2023-05-29T08:26:25;20.54;36.38
69225;DHT22;56333;51.306;17.056;2023-05-29T08:27:55;20.54;36.13
69225;DHT22;56333;51.306;17.056;2023-05-29T08:29:23;20.54;36.00
69225;DHT22;56333;51.306;17.056;2023-05-29T08:30:52;20.54;35.67
69225;DHT22;56333;51.306;17.056;2023-05-29T08:32:22;20.58;35.88
69225;DHT22;56333;51.306;17.056;2023-05-29T08:33:51;20.63;35.65
69225;DHT22;56333;51.306;17.056;2023-05-29T08:35:20;20.65;35.53
69225;DHT22;56333;51.306;17.056;2023-05-29T08:36:49;20.66;35.60
69225;DHT22;56333;51.306;17.056;2023-05-29T08:38:19;20.65;35.85
69225;DHT22;56333;51.306;17.056;2023-05-29T08:39:49;20.64;36.38
69225;DHT22;56333;51.306;17.056;2023-05-29T08:41:24;20.67;36.38
69225;DHT22;56333;51.306;17.056;2023-05-29T08:42:59;20.69;35.92
69225;DHT22;56333;51.306;17.056;2023-05-29T08:44:31;20.67;35.58
69225;DHT22;56333;51.306;17.056;2023-05-29T08:46:02;20.67;35.55
69225;DHT22;56333;51.306;17.056;2023-05-29T08:47:32;20.69;35.85
69225;DHT22;56333;51.306;17.056;2023-05-29T08:49:05;20.66;35.67
69225;DHT22;56333;51.306;17.056;2023-05-29T08:50:34;20.62;35.80
69225;DHT22;56333;51.306;17.056;2023-05-29T08:52:09;20.64;35.92
69225;DHT22;56333;51.306;17.056;2023-05-29T08:53:39;20.64;36.05
69225;DHT22;56333;51.306;17.056;2023-05-29T08:55:10;20.64;36.28
69225;DHT22;56333;51.306;17.056;2023-05-29T08:56:40;20.67;36.47
69225;DHT22;56333;51.306;17.056;2023-05-29T08:58:09;20.69;36.35
69225;DHT22;56333;51.306;17.056;2023-05-29T08:59:42;20.74;36.28
69225;DHT22;56333;51.306;17.056;2023-05-29T09:01:13;20.77;36.30
69225;DHT22;56333;51.306;17.056;2023-05-29T09:02:44;20.79;36.35
69225;DHT22;56333;51.306;17.056;2023-05-29T09:04:13;20.80;36.47
69225;DHT22;56333;51.306;17.056;2023-05-29T09:05:42;20.80;36.80
69225;DHT22;56333;51.306;17.056;2023-05-29T09:07:11;20.84;37.00
69225;DHT22;56333;51.306;17.056;2023-05-29T09:08:41;20.86;37.17
69225;DHT22;56333;51.306;17.056;2023-05-29T09:10:10;20.84;37.25
69225;DHT22;56333;51.306;17.056;2023-05-29T09:11:39;20.88;37.45
69225;DHT22;56333;51.306;17.056;2023-05-29T09:13:09;20.92;37.45
69225;DHT22;56333;51.306;17.056;2023-05-29T09:14:39;20.97;37.35
69225;DHT22;56333;51.306;17.056;2023-05-29T09:16:09;21.01;36.92
69225;DHT22;56333;51.306;17.056;2023-05-29T09:17:38;21.01;36.60
69225;DHT22;56333;51.306;17.056;2023-05-29T09:19:07;21.01;36.65
69225;DHT22;56333;51.306;17.056;2023-05-29T09:20:36;21.00;36.55
69225;DHT22;56333;51.306;17.056;2023-05-29T09:22:06;21.00;36.45